WetterOnline ( https://www.wetteronline.de )

Wetter aktuell Potsdam

Aktuelles Wetter: Berlin-Dahlem (70m)

6-stündlich | Neueste Meldungen
Ortszeit Temperatur Wetter
Di, 02.06. 14:00 24.9° C leicht bewölkt
Di, 02.06. 8:00 15.2° C fast wolkenlos
Di, 02.06. 2:00 13.6° C wolkenlos
Mo, 01.06. 20:00 20.9° C wolkenlos
Mo, 01.06. 14:00 22.8° C fast wolkenlos
Mo, 01.06. 8:00 12.0° C fast wolkenlos
Mo, 01.06. 2:00 11.4° C wolkenlos
So, 31.05. 20:00 19.0° C wolkenlos
Ortszeit Temperatur Wetter
Di, 02.06. 19:00 25.7° C fast wolkenlos
Di, 02.06. 18:00 26.3° C leicht bewölkt
Di, 02.06. 17:00 26.1° C leicht bewölkt
Di, 02.06. 16:00 26.4° C leicht bewölkt
Di, 02.06. 15:00 25.7° C leicht bewölkt
Di, 02.06. 14:00 24.9° C leicht bewölkt
Ortszeit Relative Feuchte Sichtweite
Di, 02.06. 14:00 34% 50 km
Di, 02.06. 8:00 58% 50 km
Di, 02.06. 2:00 55% 50 km
Mo, 01.06. 20:00 39% 50 km
Mo, 01.06. 14:00 32% 50 km
Mo, 01.06. 8:00 80% 50 km
Mo, 01.06. 2:00 77% 50 km
So, 31.05. 20:00 47% 50 km
Ortszeit Relative Feuchte Sichtweite
Di, 02.06. 19:00 31% 50 km
Di, 02.06. 18:00 31% 50 km
Di, 02.06. 17:00 31% 50 km
Di, 02.06. 16:00 32% 50 km
Di, 02.06. 15:00 34% 50 km
Di, 02.06. 14:00 34% 50 km
Ortszeit Niederschlagsmenge Niederschlagsart
Di, 02.06. 14:00 0.0 l/m2 in 6 Std. -
Di, 02.06. 8:00 0.0 l/m2 in 12 Std. -
Di, 02.06. 2:00 0.0 l/m2 in 6 Std. -
Mo, 01.06. 20:00 0.0 l/m2 in 12 Std. -
Mo, 01.06. 14:00 0.0 l/m2 in 6 Std. -
Mo, 01.06. 8:00 0.0 l/m2 in 12 Std. -
Mo, 01.06. 2:00 0.0 l/m2 in 6 Std. -
So, 31.05. 20:00 0.0 l/m2 in 12 Std. -
Ortszeit Niederschlagsmenge Niederschlagsart
Di, 02.06. 19:00 keine Meldung -
Di, 02.06. 18:00 keine Meldung -
Di, 02.06. 17:00 keine Meldung -
Di, 02.06. 16:00 keine Meldung -
Di, 02.06. 15:00 keine Meldung -
Di, 02.06. 14:00 keine Meldung -
Ortszeit Stärke Spitze Richtung
km/h Bft. km/h Grad Sektor
Di, 02.06. 14:00 14 3 - 350° N
Di, 02.06. 8:00 11 2 - 360° N
Di, 02.06. 2:00 11 2 - 60° NO
Mo, 01.06. 20:00 22 4 - 50° NO
Mo, 01.06. 14:00 14 3 - 50° NO
Mo, 01.06. 8:00 11 2 - 60° NO
Mo, 01.06. 2:00 14 3 - 50° NO
So, 31.05. 20:00 18 3 - 40° NO
Ortszeit Stärke Spitze Richtung
km/h Bft. km/h Grad Sektor
Di, 02.06. 19:00 22 4 - 360° N
Di, 02.06. 18:00 25 4 - 350° N
Di, 02.06. 17:00 18 3 - 360° N
Di, 02.06. 16:00 18 3 - 350° N
Di, 02.06. 15:00 22 4 - 340° N
Di, 02.06. 14:00 14 3 - 350° N
Ortszeit Untergrenze Bedeckung Gattung
total tief tief mittel hoch
Di, 02.06. 14:00 2100 m 3/8 3/8 Cu Ac -
Di, 02.06. 8:00 9000 m 1/8 0/8 - - Ci
Di, 02.06. 2:00 - 0/8 0/8 - - -
Mo, 01.06. 20:00 - 0/8 0/8 - - -
Mo, 01.06. 14:00 9000 m 1/8 0/8 - - Ci
Mo, 01.06. 8:00 9000 m 1/8 0/8 - - Ci
Mo, 01.06. 2:00 - 0/8 0/8 - - -
So, 31.05. 20:00 - 0/8 0/8 - - -
Ortszeit Bedeckungsgrad in Achtel und Wolkenuntergrenze
Di, 02.06. 19:00 1(2400m)
Di, 02.06. 18:00 2(2400m)
Di, 02.06. 17:00 2(2400m)
Di, 02.06. 16:00 3(2100m)
Di, 02.06. 15:00 3(2100m)
Di, 02.06. 14:00 3(2100m)
Ortszeit Luftdruck NN (hPa) Tendenz (hPa in 3 Std.)
Di, 02.06. 14:00 1016 - 2,4
Di, 02.06. 8:00 1021 - 0,2
Di, 02.06. 2:00 1022 - 0,5
Mo, 01.06. 20:00 1022 - 0,3
Mo, 01.06. 14:00 1023 - 1,1
Mo, 01.06. 8:00 1024 + 0,9
Mo, 01.06. 2:00 1024 + 0,7
So, 31.05. 20:00 1021 + 0,8
Ortszeit Luftdruck NN (hPa) Tendenz (hPa in 3 Std.)
Di, 02.06. 19:00 1012 - 2,1
Di, 02.06. 18:00 1012 - 2,6
Di, 02.06. 17:00 1013 - 3,0
Di, 02.06. 16:00 1014 - 3,0
Di, 02.06. 15:00 1015 - 2,7
Di, 02.06. 14:00 1016 - 2,4
Ortszeit Schneehöhe (cm)
Di, 02.06. 14:00 0
Di, 02.06. 8:00 0
Di, 02.06. 2:00 0
Mo, 01.06. 20:00 0
Mo, 01.06. 14:00 0
Mo, 01.06. 8:00 0
Mo, 01.06. 2:00 0
So, 31.05. 20:00 0
Ortszeit Schneehöhe (cm)
Di, 02.06. 19:00 -
Di, 02.06. 18:00 -
Di, 02.06. 17:00 -
Di, 02.06. 16:00 -
Di, 02.06. 15:00 -
Di, 02.06. 14:00 0
Link zu dieser Seite / Seite empfehlen

Das Wetter in ...